createdAt,value
2022-09-20T00:01:18.734Z,1.00
2022-09-20T00:03:48.088Z,1.00
2022-09-20T00:06:20.386Z,1.00
2022-09-20T00:08:49.146Z,1.00
2022-09-20T00:11:20.818Z,1.00
2022-09-20T00:13:50.708Z,1.00
2022-09-20T00:16:21.651Z,1.00
2022-09-20T00:18:50.658Z,1.00
2022-09-20T00:21:22.494Z,1.00
2022-09-20T00:23:50.585Z,1.00
2022-09-20T00:26:20.194Z,1.00
2022-09-20T00:28:48.402Z,1.00
2022-09-20T00:31:17.097Z,1.00
2022-09-20T00:34:02.763Z,1.00
2022-09-20T00:36:32.558Z,1.00
2022-09-20T00:39:02.547Z,1.00
2022-09-20T00:41:31.403Z,1.00
2022-09-20T00:44:00.313Z,1.00
2022-09-20T00:46:34.972Z,1.00
2022-09-20T00:49:07.929Z,1.00
2022-09-20T00:51:40.256Z,1.00
2022-09-20T00:54:11.330Z,1.00
2022-09-20T00:56:44.017Z,1.00
2022-09-20T00:59:17.166Z,1.00
2022-09-20T01:01:49.537Z,9.00
2022-09-20T01:04:21.751Z,1.00
2022-09-20T01:06:54.010Z,1.00
2022-09-20T01:09:22.264Z,12.30
2022-09-20T01:11:51.904Z,18.50
2022-09-20T01:14:22.709Z,91.80
2022-09-20T01:16:51.309Z,54.90
2022-09-20T01:19:27.127Z,99.90
2022-09-20T01:21:56.844Z,99.90
2022-09-20T01:24:31.317Z,99.90
2022-09-20T01:27:09.504Z,99.90
2022-09-20T01:29:56.637Z,99.90
2022-09-20T01:32:29.604Z,99.90
2022-09-20T01:35:01.915Z,99.90
2022-09-20T01:37:38.037Z,99.90
2022-09-20T01:40:13.661Z,99.90
2022-09-20T01:42:49.160Z,99.90
2022-09-20T01:45:23.718Z,99.90
2022-09-20T01:47:58.448Z,21.10
2022-09-20T01:50:35.185Z,78.30
2022-09-20T01:53:30.587Z,99.90
2022-09-20T01:56:38.541Z,37.10
2022-09-20T01:59:39.392Z,33.90
2022-09-20T02:02:32.010Z,99.90
2022-09-20T02:05:25.006Z,99.90
2022-09-20T02:08:47.435Z,46.70
2022-09-20T02:11:18.119Z,2.70
2022-09-20T02:14:15.797Z,46.50
2022-09-20T02:16:56.900Z,41.20
2022-09-20T02:20:02.069Z,99.90
2022-09-20T02:23:07.182Z,99.90
2022-09-20T02:25:54.211Z,99.90
2022-09-20T02:28:33.143Z,99.90
2022-09-20T02:31:12.031Z,99.90
2022-09-20T02:33:56.785Z,99.90
2022-09-20T02:36:40.224Z,99.90
2022-09-20T02:39:14.273Z,99.90
2022-09-20T02:42:00.398Z,99.90
2022-09-20T02:44:54.725Z,99.90
2022-09-20T02:47:32.577Z,99.90
2022-09-20T02:50:15.875Z,99.90
2022-09-20T02:52:58.446Z,99.90
2022-09-20T02:55:36.222Z,99.90
2022-09-20T02:58:21.954Z,99.90
2022-09-20T03:00:55.540Z,99.90
2022-09-20T03:03:35.747Z,99.90
2022-09-20T03:06:12.273Z,99.90
2022-09-20T03:08:48.388Z,99.90
2022-09-20T03:11:23.481Z,99.90
2022-09-20T03:14:11.615Z,99.90
2022-09-20T03:16:52.740Z,99.90
2022-09-20T03:19:36.652Z,99.90
2022-09-20T03:22:16.317Z,99.90
2022-09-20T03:25:00.210Z,99.90
2022-09-20T03:27:33.375Z,99.90
2022-09-20T03:30:21.060Z,99.90
2022-09-20T03:32:59.274Z,99.90
2022-09-20T03:35:40.484Z,99.90
2022-09-20T03:38:25.894Z,99.90
2022-09-20T03:41:16.358Z,99.90
2022-09-20T03:44:12.756Z,99.90
2022-09-20T03:46:46.570Z,99.90
2022-09-20T03:49:48.056Z,99.90
2022-09-20T03:52:38.832Z,99.90
2022-09-20T03:55:54.841Z,99.90
2022-09-20T03:58:37.686Z,99.90
2022-09-20T04:01:21.349Z,99.90
2022-09-20T04:03:57.376Z,99.90
2022-09-20T04:06:44.721Z,99.90
2022-09-20T04:09:32.530Z,99.90
2022-09-20T04:12:06.900Z,99.90
2022-09-20T04:14:50.066Z,99.90
2022-09-20T04:17:28.622Z,99.90
2022-09-20T04:20:03.545Z,99.90
2022-09-20T04:22:32.097Z,99.90
2022-09-20T04:25:07.925Z,99.90
2022-09-20T04:27:42.406Z,99.90
2022-09-20T04:30:19.468Z,99.90
2022-09-20T04:32:53.027Z,99.90
2022-09-20T04:35:54.314Z,99.90
2022-09-20T04:38:23.050Z,99.90
2022-09-20T04:41:16.385Z,99.90
2022-09-20T04:44:11.485Z,99.90
2022-09-20T04:47:13.394Z,99.90
2022-09-20T04:50:17.759Z,99.90
2022-09-20T04:53:15.626Z,99.90
2022-09-20T04:56:01.882Z,99.90
2022-09-20T04:58:44.691Z,99.90
2022-09-20T05:01:48.789Z,99.90
2022-09-20T05:05:24.407Z,99.90
2022-09-20T05:08:41.060Z,99.90
2022-09-20T05:11:36.531Z,99.90
2022-09-20T05:14:37.014Z,99.90
2022-09-20T05:17:21.257Z,99.90
2022-09-20T05:20:07.124Z,99.90
2022-09-20T05:23:11.845Z,99.90
2022-09-20T05:25:57.117Z,99.90
2022-09-20T05:28:34.851Z,99.90
2022-09-20T05:31:09.346Z,99.90
2022-09-20T05:33:45.256Z,99.90
2022-09-20T05:36:23.448Z,72.20
2022-09-20T05:39:02.775Z,99.90
2022-09-20T05:41:39.463Z,99.90
2022-09-20T05:44:19.657Z,1.00
2022-09-20T05:46:58.730Z,1.00
2022-09-20T05:49:42.339Z,99.90
2022-09-20T05:52:27.751Z,99.90
2022-09-20T05:55:23.253Z,99.90
2022-09-20T05:58:05.512Z,99.90
2022-09-20T06:00:39.103Z,99.90
2022-09-20T06:03:16.978Z,99.90
2022-09-20T06:05:56.520Z,99.90
2022-09-20T06:09:00.317Z,99.90
2022-09-20T06:11:48.792Z,99.90
2022-09-20T06:14:28.688Z,99.90
2022-09-20T06:17:05.995Z,99.90
2022-09-20T06:19:41.475Z,99.90
2022-09-20T06:22:17.835Z,99.90
2022-09-20T06:24:51.221Z,99.90
2022-09-20T06:27:27.092Z,99.90
2022-09-20T06:30:01.268Z,99.90
2022-09-20T06:32:30.074Z,99.90
2022-09-20T06:35:00.369Z,99.90
2022-09-20T06:38:01.385Z,99.90
2022-09-20T06:40:58.233Z,99.90
2022-09-20T06:43:30.924Z,99.90
2022-09-20T06:45:59.119Z,99.90
2022-09-20T06:48:29.848Z,99.90
2022-09-20T06:50:58.915Z,1.00
2022-09-20T06:53:31.352Z,1.00
2022-09-20T06:55:59.748Z,1.00
2022-09-20T06:58:29.546Z,1.00
2022-09-20T07:00:57.712Z,1.00
2022-09-20T07:03:25.750Z,1.00
2022-09-20T07:05:54.194Z,1.00
2022-09-20T07:08:22.197Z,1.00
2022-09-20T07:10:50.928Z,1.00
2022-09-20T07:13:20.895Z,1.00
2022-09-20T07:15:50.618Z,1.00
2022-09-20T07:18:18.686Z,1.00
2022-09-20T07:20:47.152Z,1.00
2022-09-20T07:23:15.936Z,1.00
2022-09-20T07:25:44.045Z,1.00
2022-09-20T07:28:12.147Z,60.90
2022-09-20T07:30:40.262Z,99.90
2022-09-20T07:33:10.431Z,1.00
2022-09-20T07:35:38.593Z,1.00
2022-09-20T07:38:06.600Z,1.00
2022-09-20T07:40:35.064Z,1.00
2022-09-20T07:43:03.078Z,1.00
2022-09-20T07:45:31.940Z,1.00
2022-09-20T07:48:00.123Z,1.00
2022-09-20T07:50:29.562Z,1.00
2022-09-20T07:52:58.041Z,1.00
2022-09-20T07:55:26.588Z,1.00
2022-09-20T07:57:55.584Z,1.00
2022-09-20T08:00:23.708Z,99.90
2022-09-20T08:03:00.136Z,99.90
2022-09-20T08:05:29.541Z,1.00
2022-09-20T08:07:57.559Z,1.00
2022-09-20T08:10:26.966Z,1.00
2022-09-20T08:15:43.781Z,1.00
2022-09-20T08:18:13.363Z,1.00
2022-09-20T08:20:42.739Z,1.00
2022-09-20T08:23:23.318Z,1.00
2022-09-20T08:25:52.095Z,99.90
2022-09-20T08:28:20.148Z,1.00
2022-09-20T08:30:48.281Z,99.90
2022-09-20T08:33:16.352Z,1.00
2022-09-20T08:35:49.348Z,99.90
2022-09-20T08:41:11.614Z,99.90
2022-09-20T08:43:45.520Z,99.90
2022-09-20T08:46:23.269Z,99.90
2022-09-20T08:48:53.174Z,99.90
2022-09-20T08:51:24.025Z,99.90
2022-09-20T08:53:55.298Z,99.90
2022-09-20T08:56:23.891Z,99.90
2022-09-20T08:58:53.219Z,99.90
2022-09-20T09:01:24.338Z,99.90
2022-09-20T09:03:53.094Z,99.90
2022-09-20T09:06:24.707Z,99.90
2022-09-20T09:08:53.687Z,99.90
2022-09-20T09:11:23.501Z,4.60
2022-09-20T09:13:55.165Z,1.00
2022-09-20T09:16:34.639Z,1.00
2022-09-20T09:19:33.244Z,1.00
2022-09-20T09:22:05.433Z,1.00
2022-09-20T09:24:33.627Z,1.00
2022-09-20T09:27:10.246Z,1.00
2022-09-20T09:29:52.245Z,1.00
2022-09-20T09:32:23.808Z,1.00
2022-09-20T09:34:52.200Z,1.00
2022-09-20T09:37:29.170Z,1.00
2022-09-20T09:40:17.327Z,1.00
2022-09-20T09:42:53.446Z,1.00
2022-09-20T09:45:38.718Z,1.00
2022-09-20T09:48:24.244Z,1.00
2022-09-20T09:51:10.586Z,1.00
2022-09-20T09:53:41.013Z,1.00
2022-09-20T09:56:41.880Z,1.00
2022-09-20T09:59:34.441Z,1.00
2022-09-20T10:02:13.106Z,1.00
2022-09-20T10:04:48.714Z,1.00
2022-09-20T10:07:24.991Z,1.00
2022-09-20T10:10:06.214Z,1.00
2022-09-20T10:12:51.609Z,1.00
2022-09-20T10:15:34.856Z,1.00
2022-09-20T10:18:39.862Z,1.00
2022-09-20T10:21:17.003Z,1.00
2022-09-20T10:24:03.646Z,1.00
2022-09-20T10:27:01.691Z,1.00
2022-09-20T10:29:41.859Z,1.00
2022-09-20T10:32:26.171Z,1.00
2022-09-20T10:35:19.832Z,1.00
2022-09-20T10:38:01.514Z,1.00
2022-09-20T10:40:49.520Z,1.00
2022-09-20T10:43:32.018Z,1.00
2022-09-20T10:46:31.333Z,1.00
2022-09-20T10:49:05.618Z,1.00
2022-09-20T10:51:44.580Z,1.00
2022-09-20T10:54:25.028Z,1.00
2022-09-20T10:56:59.106Z,1.00
2022-09-20T10:59:46.872Z,1.00
2022-09-20T11:02:26.595Z,1.00
2022-09-20T11:05:27.166Z,1.00
2022-09-20T11:08:04.200Z,1.00
2022-09-20T11:10:37.371Z,1.00
2022-09-20T11:13:11.869Z,1.00
2022-09-20T11:15:45.788Z,1.00
2022-09-20T11:18:23.454Z,1.00
2022-09-20T11:20:58.667Z,1.00
2022-09-20T11:23:33.199Z,1.00
2022-09-20T11:26:10.930Z,1.00
2022-09-20T11:28:43.542Z,1.00
2022-09-20T11:31:20.830Z,1.00
2022-09-20T11:33:52.332Z,1.00
2022-09-20T11:36:26.213Z,1.00
2022-09-20T11:38:58.207Z,1.00
2022-09-20T11:41:28.769Z,1.00
2022-09-20T11:44:00.424Z,1.00
2022-09-20T11:46:36.356Z,1.00
2022-09-20T11:49:09.944Z,1.00
2022-09-20T11:51:55.714Z,1.00
2022-09-20T11:55:04.397Z,1.00
2022-09-20T11:57:33.107Z,1.00
2022-09-20T12:00:04.222Z,1.00
2022-09-20T12:02:47.744Z,1.00
2022-09-20T12:05:30.505Z,1.00
2022-09-20T12:08:01.248Z,1.00
2022-09-20T12:10:34.094Z,1.00
2022-09-20T12:13:04.128Z,1.00
2022-09-20T12:15:33.973Z,1.00
2022-09-20T12:18:37.509Z,1.00
2022-09-20T12:21:18.126Z,1.00
2022-09-20T12:24:11.644Z,1.00
2022-09-20T12:26:44.794Z,1.00
2022-09-20T12:29:53.179Z,1.00
2022-09-20T12:32:56.421Z,1.00
2022-09-20T12:36:18.401Z,1.00
2022-09-20T12:39:06.359Z,1.00
2022-09-20T12:41:50.880Z,1.00
2022-09-20T12:44:29.780Z,1.00
2022-09-20T12:47:01.248Z,1.00
2022-09-20T12:50:01.637Z,1.00
2022-09-20T12:52:57.253Z,1.00
2022-09-20T12:55:40.539Z,1.00
2022-09-20T12:58:32.294Z,1.00
2022-09-20T13:01:36.985Z,1.00
2022-09-20T13:04:38.556Z,1.00
2022-09-20T13:07:34.725Z,1.00
2022-09-20T13:10:21.831Z,1.00
2022-09-20T13:12:54.562Z,1.00
2022-09-20T13:15:23.464Z,1.00
2022-09-20T13:17:54.142Z,1.00
2022-09-20T13:20:25.477Z,1.00
2022-09-20T13:22:58.296Z,1.00
2022-09-20T13:25:30.364Z,1.00
2022-09-20T13:28:07.728Z,1.00
2022-09-20T13:30:35.925Z,1.00
2022-09-20T13:33:21.712Z,1.00
2022-09-20T13:35:52.496Z,1.00
2022-09-20T13:38:22.627Z,1.00
2022-09-20T13:40:54.105Z,1.00
2022-09-20T13:43:28.780Z,1.00
2022-09-20T13:45:58.951Z,1.00
2022-09-20T13:48:28.542Z,1.00
2022-09-20T13:50:57.347Z,1.00
2022-09-20T13:53:41.095Z,1.00
2022-09-20T13:56:18.242Z,1.00
2022-09-20T13:58:46.644Z,1.00
2022-09-20T14:01:25.457Z,1.00
2022-09-20T14:03:54.426Z,1.00
2022-09-20T14:06:28.174Z,1.00
2022-09-20T14:08:58.331Z,1.00
2022-09-20T14:11:31.397Z,1.00
2022-09-20T14:14:01.934Z,1.00
2022-09-20T14:16:32.611Z,1.00
2022-09-20T14:19:01.905Z,1.00
2022-09-20T14:21:34.368Z,1.00
2022-09-20T14:24:06.276Z,1.00
2022-09-20T14:26:37.582Z,1.00
2022-09-20T14:29:30.588Z,1.00
2022-09-20T14:32:01.562Z,1.00
2022-09-20T14:34:29.988Z,1.00
2022-09-20T14:37:06.243Z,1.00
2022-09-20T14:39:37.259Z,1.00
2022-09-20T14:42:20.949Z,1.00
2022-09-20T14:44:53.413Z,1.00
2022-09-20T14:47:29.444Z,1.00
2022-09-20T14:49:59.016Z,1.00
2022-09-20T14:52:43.792Z,1.00
2022-09-20T14:55:28.238Z,1.00
2022-09-20T14:58:02.294Z,1.00
2022-09-20T15:00:30.855Z,1.00
2022-09-20T15:03:06.159Z,1.00
2022-09-20T15:05:34.682Z,1.00
2022-09-20T15:08:03.363Z,1.00
2022-09-20T15:10:31.448Z,1.00
2022-09-20T15:13:00.943Z,1.00
2022-09-20T15:15:29.074Z,1.00
2022-09-20T15:17:57.323Z,1.00
2022-09-20T15:20:25.480Z,1.00
2022-09-20T15:22:53.810Z,1.00
2022-09-20T15:25:22.291Z,1.00
2022-09-20T15:27:50.868Z,1.00
2022-09-20T15:30:21.084Z,1.00
2022-09-20T15:32:49.495Z,1.00
2022-09-20T15:35:18.046Z,1.00
2022-09-20T15:37:46.565Z,1.00
2022-09-20T15:40:15.273Z,1.00
2022-09-20T15:42:43.896Z,1.00
2022-09-20T15:45:13.358Z,1.00
2022-09-20T15:47:42.770Z,1.00
2022-09-20T15:50:11.705Z,1.00
2022-09-20T15:52:41.571Z,1.00
2022-09-20T15:55:10.969Z,1.00
2022-09-20T15:57:40.183Z,1.00
2022-09-20T16:00:09.411Z,1.00
2022-09-20T16:02:37.753Z,1.00
2022-09-20T16:05:09.954Z,1.00
2022-09-20T16:07:38.071Z,1.00
2022-09-20T16:10:06.997Z,1.00
2022-09-20T16:12:35.073Z,1.00
2022-09-20T16:15:03.306Z,1.00
2022-09-20T16:17:48.959Z,1.00
2022-09-20T16:20:18.366Z,1.00
2022-09-20T16:22:47.025Z,1.00
2022-09-20T16:25:15.091Z,1.00
2022-09-20T16:27:43.149Z,1.00
2022-09-20T16:30:12.348Z,1.00
2022-09-20T16:32:40.707Z,1.00
2022-09-20T16:35:09.295Z,1.00
2022-09-20T16:37:39.375Z,1.00
2022-09-20T16:40:11.240Z,1.00
2022-09-20T16:42:39.384Z,1.00
2022-09-20T16:45:09.586Z,1.00
2022-09-20T16:47:41.056Z,1.00
2022-09-20T16:50:09.899Z,1.00
2022-09-20T16:52:39.870Z,1.00
2022-09-20T16:55:10.973Z,1.00
2022-09-20T16:57:39.030Z,1.00
2022-09-20T17:00:08.728Z,1.00
2022-09-20T17:02:37.094Z,1.00
2022-09-20T17:05:06.462Z,1.00
2022-09-20T17:07:34.513Z,1.00
2022-09-20T17:10:03.992Z,1.00
2022-09-20T17:12:34.079Z,1.00
2022-09-20T17:15:02.130Z,1.00
2022-09-20T17:17:30.335Z,1.00
2022-09-20T17:19:58.408Z,1.00
2022-09-20T17:22:26.534Z,1.00
2022-09-20T17:24:54.780Z,1.00
2022-09-20T17:27:24.339Z,1.00
2022-09-20T17:29:52.377Z,1.00
2022-09-20T17:32:20.800Z,1.00
2022-09-20T17:34:49.491Z,1.00
2022-09-20T17:37:17.513Z,1.00
2022-09-20T17:39:45.498Z,1.00
2022-09-20T17:42:13.528Z,1.00
2022-09-20T17:44:42.928Z,1.00
2022-09-20T17:47:10.971Z,1.00
2022-09-20T17:49:40.637Z,1.00
2022-09-20T17:52:08.832Z,1.00
2022-09-20T17:54:36.937Z,1.00
2022-09-20T17:57:05.555Z,1.00
2022-09-20T17:59:34.408Z,1.00
2022-09-20T18:02:03.858Z,1.00
2022-09-20T18:04:32.254Z,1.00
2022-09-20T18:07:01.676Z,1.00
2022-09-20T18:09:29.712Z,1.00
2022-09-20T18:11:58.010Z,1.00
2022-09-20T18:14:31.195Z,1.00
2022-09-20T18:17:02.117Z,1.00
2022-09-20T18:19:34.156Z,1.00
2022-09-20T18:22:02.815Z,1.00
2022-09-20T18:24:31.446Z,1.00
2022-09-20T18:27:00.555Z,1.00
2022-09-20T18:29:29.253Z,1.00
2022-09-20T18:31:59.653Z,1.00
2022-09-20T18:34:31.232Z,1.00
2022-09-20T18:37:01.607Z,1.00
2022-09-20T18:39:32.555Z,1.00
2022-09-20T18:42:01.265Z,1.00
2022-09-20T18:44:32.295Z,1.00
2022-09-20T18:47:03.723Z,1.00
2022-09-20T18:49:32.225Z,1.00
2022-09-20T18:52:02.204Z,1.00
2022-09-20T18:54:33.299Z,1.00
2022-09-20T18:57:02.891Z,1.00
2022-09-20T18:59:31.403Z,1.00
2022-09-20T19:02:21.331Z,1.00
2022-09-20T19:05:14.334Z,1.00
2022-09-20T19:07:54.361Z,1.00
2022-09-20T19:10:27.861Z,1.00
2022-09-20T19:13:03.678Z,1.00
2022-09-20T19:15:44.646Z,1.00
2022-09-20T19:18:40.106Z,1.00
2022-09-20T19:21:16.264Z,1.00
2022-09-20T19:24:05.863Z,1.00
2022-09-20T19:26:38.639Z,1.00
2022-09-20T19:29:19.706Z,1.00
2022-09-20T19:31:49.585Z,1.00
2022-09-20T19:34:21.389Z,1.00
2022-09-20T19:37:03.791Z,1.00
2022-09-20T19:39:44.252Z,1.00
2022-09-20T19:42:22.067Z,1.00
2022-09-20T19:45:03.680Z,1.00
2022-09-20T19:47:43.546Z,1.00
2022-09-20T19:50:16.931Z,1.00
2022-09-20T19:52:45.685Z,1.00
2022-09-20T19:55:16.626Z,1.00
2022-09-20T19:57:47.021Z,1.00
2022-09-20T20:00:17.604Z,1.00
2022-09-20T20:02:47.043Z,1.00
2022-09-20T20:05:17.112Z,1.00
2022-09-20T20:07:51.050Z,1.00
2022-09-20T20:10:28.088Z,1.00
2022-09-20T20:13:02.324Z,1.00
2022-09-20T20:15:44.611Z,1.00
2022-09-20T20:18:24.714Z,1.00
2022-09-20T20:20:55.142Z,1.00
2022-09-20T20:23:43.662Z,1.00
2022-09-20T20:26:20.578Z,1.00
2022-09-20T20:28:48.993Z,1.00
2022-09-20T20:31:17.327Z,1.00
2022-09-20T20:33:45.720Z,1.00
2022-09-20T20:36:13.815Z,1.00
2022-09-20T20:38:46.264Z,1.00
2022-09-20T20:41:18.496Z,1.00
2022-09-20T20:43:47.888Z,1.00
2022-09-20T20:46:18.779Z,1.00
2022-09-20T20:48:47.788Z,1.00
2022-09-20T20:51:17.900Z,1.00
2022-09-20T20:53:47.784Z,1.00
2022-09-20T20:56:19.086Z,1.00
2022-09-20T20:58:48.866Z,1.00
2022-09-20T21:01:19.576Z,1.00
2022-09-20T21:03:49.279Z,1.00
2022-09-20T21:06:17.627Z,1.00
2022-09-20T21:08:49.550Z,1.00
2022-09-20T21:11:23.373Z,1.00
2022-09-20T21:13:52.139Z,99.90
2022-09-20T21:16:22.910Z,99.90
2022-09-20T21:18:51.855Z,99.90
2022-09-20T21:21:21.903Z,99.90
2022-09-20T21:23:51.585Z,99.90
2022-09-20T21:26:22.329Z,99.90
2022-09-20T21:28:53.049Z,99.90
2022-09-20T21:31:23.833Z,99.90
2022-09-20T21:33:52.220Z,99.90
2022-09-20T21:36:21.709Z,99.90
2022-09-20T21:38:49.958Z,99.90
2022-09-20T21:41:22.344Z,99.90
2022-09-20T21:43:53.202Z,99.90
2022-09-20T21:46:23.362Z,99.90
2022-09-20T21:48:51.677Z,99.90
2022-09-20T21:51:21.392Z,99.90
2022-09-20T21:53:50.350Z,99.90
2022-09-20T21:56:19.772Z,99.90
2022-09-20T21:58:48.208Z,99.90
2022-09-20T22:01:18.400Z,99.90
2022-09-20T22:03:47.905Z,1.00
2022-09-20T22:06:17.656Z,99.90
2022-09-20T22:08:48.581Z,1.00
2022-09-20T22:11:17.544Z,1.00
2022-09-20T22:13:49.673Z,1.00
2022-09-20T22:16:19.847Z,99.90
2022-09-20T22:18:48.472Z,99.90
2022-09-20T22:21:19.381Z,99.90
2022-09-20T22:23:50.435Z,1.00
2022-09-20T22:26:20.087Z,1.00
2022-09-20T22:28:50.178Z,1.00
2022-09-20T22:31:20.085Z,1.00
2022-09-20T22:33:50.049Z,1.00
2022-09-20T22:36:20.100Z,1.00
2022-09-20T22:38:48.700Z,1.00
2022-09-20T22:41:18.166Z,1.00
2022-09-20T22:43:46.463Z,1.00
2022-09-20T22:46:17.850Z,1.00
2022-09-20T22:48:46.436Z,1.00
2022-09-20T22:51:16.622Z,1.00
2022-09-20T22:53:45.760Z,1.00
2022-09-20T22:56:15.950Z,1.00
2022-09-20T22:58:45.894Z,1.00
2022-09-20T23:01:16.957Z,1.00
2022-09-20T23:03:47.473Z,1.00
2022-09-20T23:06:17.297Z,1.00
2022-09-20T23:08:45.389Z,1.00
2022-09-20T23:11:15.300Z,1.00
2022-09-20T23:13:43.724Z,1.00
2022-09-20T23:16:13.582Z,1.00
2022-09-20T23:18:43.200Z,1.00
2022-09-20T23:21:11.251Z,1.00
2022-09-20T23:23:39.925Z,1.00
2022-09-20T23:26:10.549Z,1.00
2022-09-20T23:28:40.124Z,1.00
2022-09-20T23:31:09.999Z,1.00
2022-09-20T23:33:38.366Z,1.00
2022-09-20T23:36:10.198Z,1.00
2022-09-20T23:38:38.360Z,1.00
2022-09-20T23:41:07.491Z,1.00
2022-09-20T23:43:36.582Z,1.00
2022-09-20T23:46:06.009Z,11.60
2022-09-20T23:48:36.065Z,1.00
2022-09-20T23:51:04.703Z,1.00
2022-09-20T23:53:34.520Z,1.00
2022-09-20T23:56:03.125Z,1.00
2022-09-20T23:58:31.140Z,1.00
